Trout Lake, New York
Current Conditions -  °F | °C
As of 3:53 PM on Monday 24 Nov 2014 (Local Time) from KGFL Reporting Station
Broken Clouds Broken Clouds  
Wind Chill: 67°   Ceiling: 6000
Heat Index: 67°   Visibility: 10mi
Dew Point: 55°   Wind: 14mph
Humidity: 66%   Direction: 190°S
Pressure: 29.44"   Gusts: 21mph
Location:  43.5383°N, 73.7083°W
Report Text: KGFL 242053Z AUTO 19012G18KT 10SM BKN060 BKN075 19/13 A2944 RMK AO2 SLP970 T01940128 55004
Loading
Personal Weather Stations






























Interactive Weather Map New forecast layout! Learn more

10-Day Weather Forecast

Advertisements
Track Severe Weather on mobile